الصفحة الرئيسية
METAR-TAF:

METAR-TAF

مطار :

Goodland Municipal Airport (Renner Field)

غودلاند, كانساس, الولايات المتحدة

دائرة عرض: 39-22-03N, خط طول: 101-41-35W, ارتفاع: 1114 متر

مراقبة الطقس الحالي

تاريخ ووقت الإصدار 55 دقيقة قبل الساعة 17:53UTC
ريح 11 عقدة من الجنوب/الجنوب الغربي
درجة الحرارة 12°درجة مئوية
الرطوبة 28%
ضغط 1019 hPa
الرؤية: 16.1 كم
سماء صافية

METAR: KGLD 171753Z AUTO 20011KT 10SM CLR 12/M06 A3008 RMK AO2 SLP183 T01221056 10122 20006 58014 TSNO

زمن: 11:48 (18:48 UTC)

توقعات

تاريخ ووقت الإصدار 1ساعة و 20 دقيقة قبل الساعة 17:28UTC
التوقعات صالحة من17 الساعة 18 UTC إلى 18 الساعة 18 UTC
ريح 11 عقدة من الجنوب/الجنوب الغربي
الرؤية: 10 كم
غيوم قليلة على ارتفاع 30000 قدم
من 18 الساعة 0700 UTC
ريح 7 عقدة من الغرب/الجنوب الغربي
الرؤية: 10 كم
غيوم مفككة على ارتفاع 15000 قدم
من 18 الساعة 1600 UTC
ريح 12 عقدة من الشمال/الشمال الغربي
الرؤية: 10 كم
غيوم متفرقة على ارتفاع 9000 قدم
غيوم مفككة على ارتفاع 15000 قدم

TAF: KGLD 171728Z 1718/1818 20011KT P6SM FEW300 FM180700 24007KT P6SM BKN150 FM181600 33012KT P6SM SCT090 BKN150

أرصاد الطقس والتوقعات من أكثر من 4000 مطار (تقارير الطقس للمطار METAR والتنبؤ بالطقس بالمطارTAF).

المحطات المتاحة هي النقط الصفراء والحمراء على الخريطة.

حرك المؤشر فوق النقطة لمعرفة اسم المحطة.

ثم انقر لمعرفة أرصاد وتوقعات الطقس.

لتغيير الخارطة: اضغط على الأزرار الخضراء مع رمز الصليب الأسود للتكبير. على الزر الأخضر مع شرطة للتصغير، أو على الأسهم الخضراء للخرائط المجاورة.


METAR-TAF: